createdAt,value
2018-02-27T00:02:03.955Z,11.10
2018-02-27T00:04:30.249Z,14.10
2018-02-27T00:06:57.323Z,13.40
2018-02-27T00:09:23.662Z,13.07
2018-02-27T00:11:49.997Z,15.53
2018-02-27T00:14:16.334Z,13.20
2018-02-27T00:16:42.755Z,14.20
2018-02-27T00:19:09.137Z,13.97
2018-02-27T00:21:35.461Z,12.60
2018-02-27T00:24:01.780Z,12.50
2018-02-27T00:26:28.081Z,12.50
2018-02-27T00:28:54.392Z,13.13
2018-02-27T00:31:21.409Z,12.63
2018-02-27T00:33:47.734Z,12.57
2018-02-27T00:36:14.024Z,13.10
2018-02-27T00:38:40.340Z,15.60
2018-02-27T00:41:06.644Z,12.77
2018-02-27T00:43:32.952Z,14.00
2018-02-27T00:45:59.334Z,13.73
2018-02-27T00:48:25.636Z,14.90
2018-02-27T00:50:52.686Z,14.10
2018-02-27T00:53:19.333Z,11.97
2018-02-27T00:55:46.550Z,12.63
2018-02-27T00:58:12.870Z,14.13
2018-02-27T01:00:39.163Z,13.90
2018-02-27T01:03:05.563Z,14.00
2018-02-27T01:05:31.871Z,12.60
2018-02-27T01:07:58.152Z,13.87
2018-02-27T01:10:24.466Z,14.20
2018-02-27T01:12:50.797Z,15.10
2018-02-27T01:15:17.117Z,15.43
2018-02-27T01:17:43.459Z,14.93
2018-02-27T01:20:09.754Z,13.10
2018-02-27T01:22:36.108Z,12.90
2018-02-27T01:25:02.430Z,12.70
2018-02-27T01:27:28.712Z,13.10
2018-02-27T01:29:55.093Z,12.90
2018-02-27T01:32:21.437Z,14.53
2018-02-27T01:34:47.814Z,12.90
2018-02-27T01:37:14.238Z,14.73
2018-02-27T01:39:40.515Z,12.60
2018-02-27T01:42:06.800Z,14.00
2018-02-27T01:44:33.094Z,13.80
2018-02-27T01:46:59.492Z,13.90
2018-02-27T01:49:25.838Z,12.57
2018-02-27T01:51:52.171Z,13.10
2018-02-27T01:54:18.517Z,12.60
2018-02-27T01:56:44.804Z,12.83
2018-02-27T01:59:11.100Z,14.80
2018-02-27T02:01:38.205Z,13.13
2018-02-27T02:04:04.469Z,13.03
2018-02-27T02:06:30.772Z,14.87
2018-02-27T02:08:57.035Z,12.07
2018-02-27T02:11:24.077Z,14.00
2018-02-27T02:13:50.371Z,12.70
2018-02-27T02:16:16.627Z,13.90
2018-02-27T02:18:42.906Z,14.70
2018-02-27T02:21:09.242Z,15.57
2018-02-27T02:23:35.551Z,14.10
2018-02-27T02:26:01.920Z,13.60
2018-02-27T02:28:28.248Z,15.50
2018-02-27T02:30:54.611Z,13.90
2018-02-27T02:33:20.931Z,15.10
2018-02-27T02:35:47.268Z,14.13
2018-02-27T02:38:13.601Z,14.10
2018-02-27T02:40:39.996Z,16.60
2018-02-27T02:43:06.329Z,12.70
2018-02-27T02:45:32.660Z,15.37
2018-02-27T02:47:58.996Z,13.63
2018-02-27T02:50:25.290Z,14.73
2018-02-27T02:52:51.573Z,17.23
2018-02-27T02:55:17.878Z,13.30
2018-02-27T02:57:44.175Z,14.57
2018-02-27T03:00:11.228Z,17.07
2018-02-27T03:02:38.241Z,13.90
2018-02-27T03:05:04.573Z,14.53
2018-02-27T03:07:30.934Z,13.20
2018-02-27T03:09:57.983Z,15.07
2018-02-27T03:12:27.215Z,15.20
2018-02-27T03:14:53.554Z,15.43
2018-02-27T03:17:19.866Z,14.40
2018-02-27T03:19:46.175Z,14.30
2018-02-27T03:22:12.497Z,16.10
2018-02-27T03:24:38.785Z,14.10
2018-02-27T03:27:05.096Z,15.20
2018-02-27T03:29:31.424Z,15.33
2018-02-27T03:31:57.723Z,15.70
2018-02-27T03:34:24.029Z,15.03
2018-02-27T03:36:51.327Z,17.40
2018-02-27T03:39:17.595Z,17.13
2018-02-27T03:41:43.893Z,14.27
2018-02-27T03:44:10.257Z,14.43
2018-02-27T03:46:36.563Z,13.50
2018-02-27T03:49:02.825Z,14.07
2018-02-27T03:51:29.125Z,14.60
2018-02-27T03:53:55.382Z,17.60
2018-02-27T03:56:21.743Z,15.23
2018-02-27T03:58:48.741Z,14.90
2018-02-27T04:01:14.983Z,16.87
2018-02-27T04:03:48.072Z,15.60
2018-02-27T04:06:14.405Z,16.53
2018-02-27T04:08:40.737Z,16.23
2018-02-27T04:11:07.036Z,14.93
2018-02-27T04:13:33.286Z,16.43
2018-02-27T04:15:59.608Z,15.47
2018-02-27T04:18:25.938Z,16.13
2018-02-27T04:20:52.206Z,15.03
2018-02-27T04:23:18.528Z,16.40
2018-02-27T04:25:44.868Z,17.23
2018-02-27T04:28:11.380Z,16.67
2018-02-27T04:30:37.719Z,16.17
2018-02-27T04:33:04.061Z,17.63
2018-02-27T04:35:30.380Z,15.20
2018-02-27T04:37:56.691Z,18.37
2018-02-27T04:40:23.038Z,15.93
2018-02-27T04:42:49.355Z,16.70
2018-02-27T04:45:15.786Z,17.43
2018-02-27T04:47:42.095Z,17.40
2018-02-27T04:50:09.155Z,17.90
2018-02-27T04:52:35.496Z,16.17
2018-02-27T04:55:01.764Z,16.70
2018-02-27T04:57:28.078Z,15.77
2018-02-27T04:59:54.384Z,15.70
2018-02-27T05:02:20.662Z,15.93
2018-02-27T05:04:47.012Z,18.20
2018-02-27T05:07:14.040Z,17.50
2018-02-27T05:09:40.372Z,18.17
2018-02-27T05:12:06.738Z,17.70
2018-02-27T05:14:33.848Z,17.93
2018-02-27T05:17:00.191Z,17.93
2018-02-27T05:19:26.638Z,17.83
2018-02-27T05:21:52.895Z,17.27
2018-02-27T05:24:19.213Z,16.57
2018-02-27T05:26:46.384Z,19.93
2018-02-27T05:29:12.692Z,20.10
2018-02-27T05:31:39.803Z,18.17
2018-02-27T05:34:06.161Z,19.30
2018-02-27T05:36:33.176Z,18.10
2018-02-27T05:38:59.485Z,19.27
2018-02-27T05:41:25.837Z,18.80
2018-02-27T05:43:52.862Z,17.17
2018-02-27T05:46:19.151Z,19.40
2018-02-27T05:48:45.496Z,19.13
2018-02-27T05:51:11.784Z,17.80
2018-02-27T05:53:38.140Z,17.63
2018-02-27T05:56:04.507Z,19.40
2018-02-27T05:58:30.829Z,19.90
2018-02-27T06:00:57.380Z,19.67
2018-02-27T06:03:24.014Z,19.40
2018-02-27T06:05:50.345Z,18.40
2018-02-27T06:08:17.019Z,21.97
2018-02-27T06:10:43.482Z,17.77
2018-02-27T06:13:09.869Z,20.97
2018-02-27T06:15:36.198Z,18.63
2018-02-27T06:18:02.542Z,19.40
2018-02-27T06:20:28.861Z,21.27
2018-02-27T06:22:55.218Z,19.50
2018-02-27T06:25:21.533Z,19.47
2018-02-27T06:27:47.797Z,18.47
2018-02-27T06:30:14.198Z,20.10
2018-02-27T06:32:40.531Z,19.57
2018-02-27T06:35:07.084Z,19.60
2018-02-27T06:37:33.518Z,21.07
2018-02-27T06:39:59.939Z,18.70
2018-02-27T06:42:26.302Z,20.23
2018-02-27T06:44:53.345Z,19.83
2018-02-27T06:47:19.636Z,19.40
2018-02-27T06:49:46.292Z,20.30
2018-02-27T06:52:12.952Z,21.23
2018-02-27T06:54:40.028Z,20.73
2018-02-27T06:57:06.368Z,20.53
2018-02-27T06:59:32.992Z,21.37
2018-02-27T07:01:59.316Z,20.23
2018-02-27T07:04:33.263Z,23.07
2018-02-27T07:06:59.536Z,21.03
2018-02-27T07:09:25.913Z,21.90
2018-02-27T07:11:52.275Z,22.23
2018-02-27T07:14:18.580Z,22.77
2018-02-27T07:16:44.868Z,23.83
2018-02-27T07:19:11.142Z,21.30
2018-02-27T07:21:37.447Z,22.67
2018-02-27T07:24:03.771Z,22.23
2018-02-27T07:26:30.093Z,23.90
2018-02-27T07:28:57.169Z,22.07
2018-02-27T07:31:23.469Z,23.67
2018-02-27T07:33:50.587Z,22.77
2018-02-27T07:36:16.941Z,23.90
2018-02-27T07:38:43.365Z,23.20
2018-02-27T07:41:09.723Z,21.40
2018-02-27T07:43:36.891Z,22.77
2018-02-27T07:46:03.563Z,23.00
2018-02-27T07:48:29.992Z,25.23
2018-02-27T07:50:56.324Z,24.40
2018-02-27T07:53:23.048Z,24.83
2018-02-27T07:55:49.335Z,22.87
2018-02-27T07:58:15.732Z,21.87
2018-02-27T08:00:42.172Z,22.70
2018-02-27T08:03:08.522Z,22.50
2018-02-27T08:05:34.940Z,22.63
2018-02-27T08:08:01.248Z,21.47
2018-02-27T08:10:27.604Z,21.17
2018-02-27T08:12:54.763Z,21.57
2018-02-27T08:15:21.166Z,20.67
2018-02-27T08:17:47.517Z,20.60
2018-02-27T08:20:13.837Z,22.00
2018-02-27T08:22:40.125Z,21.67
2018-02-27T08:25:07.181Z,21.87
2018-02-27T08:27:34.249Z,20.80
2018-02-27T08:30:00.557Z,20.00
2018-02-27T08:32:27.687Z,20.93
2018-02-27T08:34:53.967Z,19.97
2018-02-27T08:37:20.244Z,20.63
2018-02-27T08:39:48.059Z,21.27
2018-02-27T08:42:14.317Z,20.60
2018-02-27T08:44:40.650Z,20.07
2018-02-27T08:47:06.926Z,21.57
2018-02-27T08:49:33.950Z,21.70
2018-02-27T08:52:00.236Z,22.50
2018-02-27T08:54:26.592Z,21.20
2018-02-27T08:56:53.611Z,20.00
2018-02-27T08:59:20.183Z,21.97
2018-02-27T09:01:46.570Z,19.97
2018-02-27T09:04:13.552Z,21.63
2018-02-27T09:06:39.819Z,22.23
2018-02-27T09:09:06.839Z,21.50
2018-02-27T09:11:33.139Z,21.17
2018-02-27T09:13:59.393Z,18.80
2018-02-27T09:16:25.727Z,20.73
2018-02-27T09:18:51.989Z,22.23
2018-02-27T09:21:19.073Z,23.07
2018-02-27T09:23:45.372Z,20.20
2018-02-27T09:26:11.703Z,20.73
2018-02-27T09:28:38.729Z,20.70
2018-02-27T09:31:05.783Z,20.90
2018-02-27T09:33:32.187Z,19.70
2018-02-27T09:35:58.554Z,17.47
2018-02-27T09:38:25.658Z,14.80
2018-02-27T09:40:52.043Z,14.77
2018-02-27T09:43:19.062Z,15.80
2018-02-27T09:45:45.462Z,13.63
2018-02-27T09:48:11.828Z,13.53
2018-02-27T09:50:38.241Z,13.70
2018-02-27T09:53:04.528Z,12.40
2018-02-27T09:55:30.808Z,12.27
2018-02-27T09:57:57.272Z,14.10
2018-02-27T10:00:23.594Z,13.80
2018-02-27T10:02:49.958Z,13.40
2018-02-27T10:05:16.321Z,12.50
2018-02-27T10:07:42.668Z,15.20
2018-02-27T10:10:09.060Z,13.73
2018-02-27T10:12:35.397Z,14.03
2018-02-27T10:15:01.749Z,14.67
2018-02-27T10:17:28.052Z,13.20
2018-02-27T10:19:54.410Z,13.53
2018-02-27T10:22:20.705Z,14.30
2018-02-27T10:24:46.973Z,15.40
2018-02-27T10:27:13.266Z,11.97
2018-02-27T10:29:39.577Z,11.60
2018-02-27T10:32:06.653Z,11.97
2018-02-27T10:34:32.933Z,13.83
2018-02-27T10:36:59.236Z,10.90
2018-02-27T10:39:25.535Z,10.30
2018-02-27T10:41:51.867Z,13.67
2018-02-27T10:44:18.195Z,11.27
2018-02-27T10:46:45.595Z,11.23
2018-02-27T10:49:11.892Z,12.27
2018-02-27T10:51:38.242Z,11.07
2018-02-27T10:54:04.552Z,10.17
2018-02-27T10:56:30.901Z,10.33
2018-02-27T10:58:57.182Z,10.17
2018-02-27T11:01:23.470Z,10.27
2018-02-27T11:03:49.759Z,9.57
2018-02-27T11:06:16.040Z,10.70
2018-02-27T11:08:42.357Z,10.60
2018-02-27T11:11:08.621Z,10.10
2018-02-27T11:13:35.002Z,11.07
2018-02-27T11:16:01.279Z,10.90
2018-02-27T11:18:27.741Z,8.90
2018-02-27T11:20:54.051Z,9.30
2018-02-27T11:23:20.379Z,10.67
2018-02-27T11:25:46.726Z,9.30
2018-02-27T11:28:13.731Z,10.07
2018-02-27T11:30:47.064Z,9.80
2018-02-27T11:33:13.510Z,10.83
2018-02-27T11:35:40.748Z,10.90
2018-02-27T11:38:07.136Z,11.60
2018-02-27T11:40:33.561Z,10.43
2018-02-27T11:42:59.911Z,13.20
2018-02-27T11:45:26.167Z,15.00
2018-02-27T11:47:52.569Z,11.90
2018-02-27T11:50:18.862Z,15.90
2018-02-27T11:52:45.237Z,13.60
2018-02-27T11:55:11.549Z,12.77
2018-02-27T11:57:37.820Z,12.73
2018-02-27T12:00:04.172Z,14.10
2018-02-27T12:02:31.261Z,12.87
2018-02-27T12:04:57.531Z,13.37
2018-02-27T12:07:23.883Z,12.70
2018-02-27T12:09:50.989Z,14.50
2018-02-27T12:12:17.292Z,12.93
2018-02-27T12:14:43.604Z,12.57
2018-02-27T12:17:10.632Z,14.50
2018-02-27T12:19:37.742Z,12.53
2018-02-27T12:22:03.984Z,13.43
2018-02-27T12:24:30.316Z,12.63
2018-02-27T12:26:56.632Z,12.43
2018-02-27T12:29:22.939Z,14.27
2018-02-27T12:31:49.193Z,14.47
2018-02-27T12:34:15.440Z,12.80
2018-02-27T12:36:41.731Z,12.00
2018-02-27T12:39:08.118Z,12.70
2018-02-27T12:41:34.449Z,10.90
2018-02-27T12:44:00.712Z,12.47
2018-02-27T12:46:27.013Z,12.17
2018-02-27T12:48:53.285Z,12.77
2018-02-27T12:51:19.667Z,14.00
2018-02-27T12:53:45.941Z,12.07
2018-02-27T12:56:12.381Z,12.63
2018-02-27T12:58:38.645Z,13.00
2018-02-27T13:01:04.952Z,14.03
2018-02-27T13:03:31.340Z,12.73
2018-02-27T13:05:58.438Z,13.37
2018-02-27T13:08:24.750Z,13.67
2018-02-27T13:10:51.030Z,15.03
2018-02-27T13:13:17.326Z,12.90
2018-02-27T13:15:43.604Z,12.80
2018-02-27T13:18:09.921Z,12.97
2018-02-27T13:20:36.268Z,12.30
2018-02-27T13:23:02.573Z,10.87
2018-02-27T13:25:28.936Z,12.67
2018-02-27T13:27:56.005Z,11.50
2018-02-27T13:30:22.356Z,11.80
2018-02-27T13:32:48.720Z,9.87
2018-02-27T13:35:15.045Z,10.03
2018-02-27T13:37:41.320Z,10.60
2018-02-27T13:40:07.641Z,10.27
2018-02-27T13:42:33.915Z,11.40
2018-02-27T13:45:00.259Z,9.90
2018-02-27T13:47:26.512Z,10.67
2018-02-27T13:49:53.599Z,11.70
2018-02-27T13:52:20.638Z,11.40
2018-02-27T13:54:46.966Z,10.50
2018-02-27T13:57:13.982Z,10.40
2018-02-27T13:59:40.346Z,10.40
2018-02-27T14:02:07.418Z,9.90
2018-02-27T14:04:33.722Z,11.20
2018-02-27T14:07:00.779Z,10.73
2018-02-27T14:09:27.794Z,11.90
2018-02-27T14:11:54.052Z,10.50
2018-02-27T14:14:20.322Z,11.80
2018-02-27T14:16:46.664Z,12.50
2018-02-27T14:19:12.959Z,12.13
2018-02-27T14:21:39.383Z,11.20
2018-02-27T14:24:05.778Z,11.93
2018-02-27T14:26:32.134Z,11.67
2018-02-27T14:28:59.175Z,10.93
2018-02-27T14:31:25.528Z,11.20
2018-02-27T14:33:52.559Z,10.40
2018-02-27T14:36:18.864Z,11.17
2018-02-27T14:38:45.221Z,10.97
2018-02-27T14:41:12.300Z,11.67
2018-02-27T14:43:38.614Z,11.40
2018-02-27T14:46:05.617Z,10.97
2018-02-27T14:48:31.948Z,9.90
2018-02-27T14:50:58.270Z,10.57
2018-02-27T14:53:24.543Z,11.50
2018-02-27T14:55:51.612Z,10.30
2018-02-27T14:58:17.982Z,11.20
2018-02-27T15:00:45.064Z,11.47
2018-02-27T15:03:11.366Z,10.20
2018-02-27T15:05:37.673Z,9.43
2018-02-27T15:08:03.966Z,10.87
2018-02-27T15:10:31.064Z,10.47
2018-02-27T15:12:57.437Z,10.63
2018-02-27T15:15:23.758Z,9.20
2018-02-27T15:17:50.098Z,9.33
2018-02-27T15:20:16.407Z,9.60
2018-02-27T15:22:42.711Z,10.10
2018-02-27T15:25:09.037Z,9.27
2018-02-27T15:27:35.366Z,9.47
2018-02-27T15:30:02.452Z,10.33
2018-02-27T15:32:29.515Z,10.20
2018-02-27T15:34:55.790Z,10.50
2018-02-27T15:37:22.177Z,9.93
2018-02-27T15:39:48.517Z,9.50
2018-02-27T15:42:14.863Z,9.77
2018-02-27T15:44:41.926Z,9.20
2018-02-27T15:47:08.346Z,8.00
2018-02-27T15:49:34.616Z,8.63
2018-02-27T15:52:00.898Z,9.33
2018-02-27T15:54:27.953Z,9.53
2018-02-27T15:56:55.025Z,8.70
2018-02-27T15:59:21.328Z,9.10
2018-02-27T16:01:48.337Z,9.03
2018-02-27T16:04:14.641Z,10.07
2018-02-27T16:06:40.950Z,9.87
2018-02-27T16:09:07.341Z,10.57
2018-02-27T16:11:33.657Z,10.60
2018-02-27T16:13:59.996Z,8.80
2018-02-27T16:16:26.301Z,10.80
2018-02-27T16:18:52.593Z,8.97
2018-02-27T16:21:19.603Z,9.50
2018-02-27T16:23:45.910Z,9.50
2018-02-27T16:26:12.228Z,9.37
2018-02-27T16:28:38.532Z,9.37
2018-02-27T16:31:05.585Z,9.10
2018-02-27T16:33:34.743Z,10.40
2018-02-27T16:36:01.054Z,9.27
2018-02-27T16:38:27.348Z,10.00
2018-02-27T16:40:53.657Z,9.00
2018-02-27T16:43:19.971Z,9.40
2018-02-27T16:45:46.297Z,9.90
2018-02-27T16:48:12.585Z,9.33
2018-02-27T16:50:38.881Z,10.40
2018-02-27T16:53:05.173Z,9.87
2018-02-27T16:55:31.469Z,10.20
2018-02-27T16:57:57.761Z,9.87
2018-02-27T17:00:24.080Z,9.40
2018-02-27T17:02:51.377Z,9.90
2018-02-27T17:05:18.416Z,9.27
2018-02-27T17:07:45.794Z,9.97
2018-02-27T17:10:12.198Z,10.03
2018-02-27T17:12:38.498Z,9.40
2018-02-27T17:15:04.802Z,11.30
2018-02-27T17:17:31.170Z,11.23
2018-02-27T17:19:57.496Z,9.47
2018-02-27T17:22:23.861Z,10.20
2018-02-27T17:24:50.506Z,11.00
2018-02-27T17:27:17.611Z,11.13
2018-02-27T17:29:43.980Z,11.77
2018-02-27T17:32:11.095Z,12.10
2018-02-27T17:34:37.664Z,11.00
2018-02-27T17:37:04.009Z,10.77
2018-02-27T17:39:30.297Z,10.10
2018-02-27T17:41:56.601Z,10.43
2018-02-27T17:44:22.929Z,11.57
2018-02-27T17:46:49.277Z,9.93
2018-02-27T17:49:15.577Z,10.80
2018-02-27T17:51:41.950Z,11.17
2018-02-27T17:54:08.230Z,10.00
2018-02-27T17:56:34.567Z,9.63
2018-02-27T17:59:01.006Z,10.57
2018-02-27T18:01:27.332Z,10.43
2018-02-27T18:03:53.852Z,10.67
2018-02-27T18:06:20.189Z,11.97
2018-02-27T18:08:46.562Z,10.67
2018-02-27T18:11:12.894Z,10.70
2018-02-27T18:13:39.206Z,10.20
2018-02-27T18:16:05.538Z,11.77
2018-02-27T18:18:31.886Z,11.60
2018-02-27T18:20:58.179Z,11.07
2018-02-27T18:23:24.549Z,11.70
2018-02-27T18:25:50.849Z,11.60
2018-02-27T18:28:17.235Z,11.10
2018-02-27T18:30:43.558Z,11.93
2018-02-27T18:33:09.901Z,12.17
2018-02-27T18:35:36.225Z,12.10
2018-02-27T18:38:02.516Z,11.87
2018-02-27T18:40:28.867Z,12.17
2018-02-27T18:42:56.012Z,12.33
2018-02-27T18:45:22.388Z,11.40
2018-02-27T18:47:49.494Z,11.53
2018-02-27T18:50:15.908Z,11.40
2018-02-27T18:52:42.262Z,11.60
2018-02-27T18:55:08.574Z,10.97
2018-02-27T18:57:35.095Z,12.80
2018-02-27T19:00:01.419Z,11.43
2018-02-27T19:02:28.509Z,12.13
2018-02-27T19:04:54.906Z,10.90
2018-02-27T19:07:21.204Z,12.17
2018-02-27T19:09:47.586Z,11.80
2018-02-27T19:12:13.877Z,12.40
2018-02-27T19:14:40.205Z,11.93
2018-02-27T19:17:06.651Z,11.40
2018-02-27T19:19:33.733Z,11.20
2018-02-27T19:22:00.076Z,12.30
2018-02-27T19:24:26.463Z,11.90
2018-02-27T19:26:53.124Z,10.30
2018-02-27T19:29:20.348Z,11.47
2018-02-27T19:31:47.533Z,13.13
2018-02-27T19:34:14.057Z,10.30
2018-02-27T19:36:40.368Z,10.20
2018-02-27T19:39:06.733Z,11.33
2018-02-27T19:41:33.097Z,11.60
2018-02-27T19:43:59.483Z,10.37
2018-02-27T19:46:25.876Z,10.70
2018-02-27T19:48:52.284Z,11.00
2018-02-27T19:51:18.748Z,10.90
2018-02-27T19:53:45.145Z,11.33
2018-02-27T19:56:11.571Z,11.40
2018-02-27T19:58:37.952Z,10.40
2018-02-27T20:01:04.330Z,10.00
2018-02-27T20:03:30.655Z,11.07
2018-02-27T20:05:56.993Z,12.70
2018-02-27T20:08:23.354Z,10.90
2018-02-27T20:10:49.708Z,10.70
2018-02-27T20:13:16.808Z,11.07
2018-02-27T20:15:43.189Z,11.40
2018-02-27T20:18:10.612Z,11.17
2018-02-27T20:20:36.927Z,9.33
2018-02-27T20:23:09.379Z,11.17
2018-02-27T20:25:35.729Z,11.87
2018-02-27T20:28:02.917Z,9.80
2018-02-27T20:30:29.279Z,11.07
2018-02-27T20:32:55.652Z,9.57
2018-02-27T20:35:22.144Z,10.30
2018-02-27T20:37:49.319Z,10.93
2018-02-27T20:40:15.764Z,11.20
2018-02-27T20:42:42.384Z,10.83
2018-02-27T20:45:09.144Z,12.53
2018-02-27T20:47:35.589Z,11.00
2018-02-27T20:50:02.016Z,11.73
2018-02-27T20:52:28.498Z,14.73
2018-02-27T20:54:54.962Z,11.70
2018-02-27T20:57:22.054Z,11.00
2018-02-27T20:59:48.415Z,11.73
2018-02-27T21:02:14.838Z,12.30
2018-02-27T21:04:41.235Z,12.30
2018-02-27T21:07:07.598Z,13.10
2018-02-27T21:09:33.970Z,11.37
2018-02-27T21:12:01.171Z,13.03
2018-02-27T21:14:27.488Z,11.43
2018-02-27T21:16:53.781Z,13.80
2018-02-27T21:19:20.912Z,9.97
2018-02-27T21:21:47.313Z,11.40
2018-02-27T21:24:13.609Z,11.37
2018-02-27T21:26:39.969Z,11.43
2018-02-27T21:29:06.291Z,12.17
2018-02-27T21:31:32.645Z,13.70
2018-02-27T21:33:58.954Z,11.70
2018-02-27T21:36:25.239Z,10.63
2018-02-27T21:38:52.291Z,11.27
2018-02-27T21:41:19.361Z,11.40
2018-02-27T21:43:47.082Z,11.00
2018-02-27T21:46:13.584Z,11.90
2018-02-27T21:48:39.904Z,11.73
2018-02-27T21:51:06.245Z,11.47
2018-02-27T21:53:32.568Z,11.70
2018-02-27T21:55:59.726Z,11.53
2018-02-27T21:58:26.017Z,12.63
2018-02-27T22:00:53.043Z,11.20
2018-02-27T22:03:19.318Z,10.97
2018-02-27T22:05:45.629Z,10.80
2018-02-27T22:08:13.728Z,12.37
2018-02-27T22:10:40.041Z,11.13
2018-02-27T22:13:06.389Z,11.70
2018-02-27T22:15:32.743Z,11.67
2018-02-27T22:17:59.017Z,12.27
2018-02-27T22:20:26.082Z,13.67
2018-02-27T22:22:52.425Z,12.80
2018-02-27T22:25:18.741Z,11.87
2018-02-27T22:27:45.091Z,11.33
2018-02-27T22:30:11.496Z,12.43
2018-02-27T22:32:38.562Z,10.53
2018-02-27T22:35:04.896Z,10.77
2018-02-27T22:37:31.232Z,12.03
2018-02-27T22:39:57.525Z,11.67
2018-02-27T22:42:23.786Z,10.90
2018-02-27T22:44:50.080Z,11.60
2018-02-27T22:47:16.381Z,9.80
2018-02-27T22:49:42.676Z,11.40
2018-02-27T22:52:09.014Z,11.10
2018-02-27T22:54:35.374Z,11.57
2018-02-27T22:57:01.738Z,11.73
2018-02-27T22:59:28.030Z,11.07
2018-02-27T23:01:54.348Z,11.10
2018-02-27T23:04:20.763Z,13.13
2018-02-27T23:06:47.140Z,12.77
2018-02-27T23:09:14.174Z,11.47
2018-02-27T23:11:40.423Z,11.33
2018-02-27T23:14:06.779Z,11.83
2018-02-27T23:16:33.099Z,11.30
2018-02-27T23:18:59.391Z,11.40
2018-02-27T23:21:25.673Z,12.57
2018-02-27T23:23:52.951Z,11.57
2018-02-27T23:26:23.752Z,10.40
2018-02-27T23:28:50.723Z,11.63
2018-02-27T23:31:18.270Z,12.10
2018-02-27T23:33:55.208Z,12.80
2018-02-27T23:36:21.464Z,12.60
2018-02-27T23:38:47.780Z,10.33
2018-02-27T23:41:14.112Z,9.63
2018-02-27T23:43:40.385Z,11.27
2018-02-27T23:46:06.773Z,13.03
2018-02-27T23:48:33.100Z,11.87
2018-02-27T23:50:59.388Z,11.83
2018-02-27T23:53:25.725Z,11.40
2018-02-27T23:55:52.002Z,11.00
2018-02-27T23:58:18.281Z,13.57
